<?xml version='1.0' encoding='UTF-8'?><gpx version="1.1" creator="JPX - https://github.com/jenetics/jpx" xmlns="http://www.topografix.com/GPX/1/1"><trk><trkseg><trkpt lat="44.8885227" lon="7.9666641"><ele>246.00000000000003</ele><time>2026-04-11T13:07:01.108Z</time></trkpt><trkpt lat="44.8885573" lon="7.9665742"><ele>246.0</ele><time>2026-04-11T13:07:08.109Z</time></trkpt><trkpt lat="44.88859" lon="7.966481"><ele>246.00000000000003</ele><time>2026-04-11T13:07:12.109Z</time></trkpt><trkpt lat="44.8886093" lon="7.966387"><ele>246.00000000000003</ele><time>2026-04-11T13:07:17.172Z</time></trkpt><trkpt lat="44.8886272" lon="7.9663013"><ele>246.0</ele><time>2026-04-11T13:07:21.134Z</time></trkpt><trkpt lat="44.8886416" lon="7.9662002"><ele>246.00000000000003</ele><time>2026-04-11T13:07:28.148Z</time></trkpt><trkpt lat="44.8886468" lon="7.9660992"><ele>246.00000000000003</ele><time>2026-04-11T13:07:34.115Z</time></trkpt><trkpt lat="44.8886495" lon="7.9660079"><ele>246.00000000000003</ele><time>2026-04-11T13:07:40.111Z</time></trkpt><trkpt lat="44.8886608" lon="7.9659103"><ele>246.0</ele><time>2026-04-11T13:07:46.141Z</time></trkpt><trkpt lat="44.8886668" lon="7.9658086"><ele>246.00000000000003</ele><time>2026-04-11T13:07:52.105Z</time></trkpt><trkpt lat="44.8886629" lon="7.9657155"><ele>246.00000000000003</ele><time>2026-04-11T13:07:59.131Z</time></trkpt><trkpt lat="44.888662" lon="7.96562"><ele>246.0</ele><time>2026-04-11T13:08:05.112Z</time></trkpt><trkpt lat="44.8886461" lon="7.9655282"><ele>246.00000000000003</ele><time>2026-04-11T13:08:11.108Z</time></trkpt><trkpt lat="44.8886191" lon="7.9654422"><ele>246.00000000000003</ele><time>2026-04-11T13:08:16.149Z</time></trkpt><trkpt lat="44.8885797" lon="7.965348"><ele>246.00000000000003</ele><time>2026-04-11T13:08:21.167Z</time></trkpt><trkpt lat="44.888524" lon="7.9653025"><ele>246.0</ele><time>2026-04-11T13:08:26.112Z</time></trkpt><trkpt lat="44.8884581" lon="7.9652514"><ele>246.00000000000003</ele><time>2026-04-11T13:08:31.127Z</time></trkpt><trkpt lat="44.8883956" lon="7.9651978"><ele>246.00000000000003</ele><time>2026-04-11T13:08:38.121Z</time></trkpt><trkpt lat="44.8883459" lon="7.9651316"><ele>246.0</ele><time>2026-04-11T13:08:43.119Z</time></trkpt><trkpt lat="44.8882915" lon="7.9650833"><ele>246.00000000000003</ele><time>2026-04-11T13:08:48.15Z</time></trkpt><trkpt lat="44.8882371" lon="7.9650385"><ele>246.00000000000003</ele><time>2026-04-11T13:08:54.111Z</time></trkpt><trkpt lat="44.8881844" lon="7.9649753"><ele>246.00000000000003</ele><time>2026-04-11T13:09:00.142Z</time></trkpt><trkpt lat="44.888121" lon="7.9649587"><ele>246.0</ele><time>2026-04-11T13:09:12.108Z</time></trkpt><trkpt lat="44.888095" lon="7.965041"><ele>246.00000000000003</ele><time>2026-04-11T13:09:21.142Z</time></trkpt><trkpt lat="44.8881307" lon="7.9651215"><ele>246.00000000000003</ele><time>2026-04-11T13:09:27.137Z</time></trkpt><trkpt lat="44.8881954" lon="7.9651659"><ele>246.0</ele><time>2026-04-11T13:09:33.113Z</time></trkpt><trkpt lat="44.8882485" lon="7.9652284"><ele>246.00000000000003</ele><time>2026-04-11T13:09:39.165Z</time></trkpt><trkpt lat="44.8882978" lon="7.9652851"><ele>246.00000000000003</ele><time>2026-04-11T13:09:45.153Z</time></trkpt><trkpt lat="44.8883501" lon="7.9653386"><ele>246.8571428571429</ele><time>2026-04-11T13:09:52.149Z</time></trkpt><trkpt lat="44.8884061" lon="7.9653843"><ele>247.71428571428572</ele><time>2026-04-11T13:09:58.11Z</time></trkpt><trkpt lat="44.8884683" lon="7.9654415"><ele>248.57142857142858</ele><time>2026-04-11T13:10:04.144Z</time></trkpt><trkpt lat="44.8885211" lon="7.9654931"><ele>249.42857142857144</ele><time>2026-04-11T13:10:10.149Z</time></trkpt><trkpt lat="44.8885658" lon="7.9655646"><ele>250.28571428571428</ele><time>2026-04-11T13:10:19.11Z</time></trkpt><trkpt lat="44.8885726" lon="7.9656539"><ele>251.14285714285714</ele><time>2026-04-11T13:10:26.11Z</time></trkpt><trkpt lat="44.8885722" lon="7.9657523"><ele>252.0</ele><time>2026-04-11T13:10:32.115Z</time></trkpt><trkpt lat="44.8885136" lon="7.9657935"><ele>252.0</ele><time>2026-04-11T13:10:42.11Z</time></trkpt><trkpt lat="44.8884538" lon="7.9657371"><ele>252.0</ele><time>2026-04-11T13:10:49.113Z</time></trkpt><trkpt lat="44.888416" lon="7.9656502"><ele>252.0</ele><time>2026-04-11T13:10:55.12Z</time></trkpt><trkpt lat="44.8883595" lon="7.9655776"><ele>252.0</ele><time>2026-04-11T13:11:01.114Z</time></trkpt><trkpt lat="44.8883217" lon="7.965499"><ele>252.0</ele><time>2026-04-11T13:11:07.12Z</time></trkpt><trkpt lat="44.8882464" lon="7.9655546"><ele>252.0</ele><time>2026-04-11T13:11:27.143Z</time></trkpt><trkpt lat="44.8882594" lon="7.9656438"><ele>252.0</ele><time>2026-04-11T13:11:37.148Z</time></trkpt><trkpt lat="44.8881916" lon="7.9656585"><ele>252.0</ele><time>2026-04-11T13:11:58.155Z</time></trkpt><trkpt lat="44.8881523" lon="7.965585"><ele>252.0</ele><time>2026-04-11T13:12:04.114Z</time></trkpt><trkpt lat="44.8881214" lon="7.9654962"><ele>252.0</ele><time>2026-04-11T13:12:11.113Z</time></trkpt><trkpt lat="44.8880849" lon="7.9654109"><ele>252.0</ele><time>2026-04-11T13:12:17.278Z</time></trkpt><trkpt lat="44.888059" lon="7.9653162"><ele>252.0</ele><time>2026-04-11T13:12:22.152Z</time></trkpt><trkpt lat="44.8880242" lon="7.9652345"><ele>252.0</ele><time>2026-04-11T13:12:29.277Z</time></trkpt><trkpt lat="44.8880023" lon="7.9651487"><ele>252.0</ele><time>2026-04-11T13:12:36.182Z</time></trkpt><trkpt lat="44.8879667" lon="7.9650698"><ele>251.14285714285714</ele><time>2026-04-11T13:12:41.108Z</time></trkpt><trkpt lat="44.8879461" lon="7.9649854"><ele>250.28571428571428</ele><time>2026-04-11T13:12:46.117Z</time></trkpt><trkpt lat="44.887917" lon="7.9648931"><ele>249.42857142857144</ele><time>2026-04-11T13:12:52.112Z</time></trkpt><trkpt lat="44.8878823" lon="7.9648113"><ele>248.57142857142858</ele><time>2026-04-11T13:12:57.2Z</time></trkpt><trkpt lat="44.8878525" lon="7.9647262"><ele>247.71428571428572</ele><time>2026-04-11T13:13:03.115Z</time></trkpt><trkpt lat="44.8878245" lon="7.9646411"><ele>246.8571428571429</ele><time>2026-04-11T13:13:08.109Z</time></trkpt><trkpt lat="44.8877891" lon="7.9645566"><ele>246.00000000000003</ele><time>2026-04-11T13:13:14.125Z</time></trkpt><trkpt lat="44.8877382" lon="7.9644961"><ele>246.00000000000003</ele><time>2026-04-11T13:13:22.125Z</time></trkpt><trkpt lat="44.8877245" lon="7.9645983"><ele>246.0</ele><time>2026-04-11T13:13:31.18Z</time></trkpt><trkpt lat="44.8877653" lon="7.9646684"><ele>246.00000000000003</ele><time>2026-04-11T13:13:37.12Z</time></trkpt><trkpt lat="44.8877977" lon="7.9647568"><ele>246.00000000000003</ele><time>2026-04-11T13:13:43.11Z</time></trkpt><trkpt lat="44.8878182" lon="7.9648445"><ele>246.0</ele><time>2026-04-11T13:13:49.108Z</time></trkpt><trkpt lat="44.887854" lon="7.9649349"><ele>246.00000000000003</ele><time>2026-04-11T13:13:55.109Z</time></trkpt><trkpt lat="44.887887" lon="7.9650138"><ele>246.00000000000003</ele><time>2026-04-11T13:14:01.108Z</time></trkpt><trkpt lat="44.8879124" lon="7.9651102"><ele>246.8571428571429</ele><time>2026-04-11T13:14:08.154Z</time></trkpt><trkpt lat="44.8879564" lon="7.9651949"><ele>247.71428571428572</ele><time>2026-04-11T13:14:14.109Z</time></trkpt><trkpt lat="44.8879624" lon="7.9652937"><ele>248.57142857142858</ele><time>2026-04-11T13:14:21.111Z</time></trkpt><trkpt lat="44.8879301" lon="7.9653778"><ele>249.42857142857144</ele><time>2026-04-11T13:14:28.171Z</time></trkpt><trkpt lat="44.8878681" lon="7.9654166"><ele>250.28571428571428</ele><time>2026-04-11T13:14:34.156Z</time></trkpt><trkpt lat="44.8877973" lon="7.9654006"><ele>251.14285714285714</ele><time>2026-04-11T13:14:41.111Z</time></trkpt><trkpt lat="44.8877549" lon="7.9653198"><ele>252.0</ele><time>2026-04-11T13:14:48.181Z</time></trkpt><trkpt lat="44.8877304" lon="7.9652237"><ele>252.0</ele><time>2026-04-11T13:14:55.153Z</time></trkpt><trkpt lat="44.8877201" lon="7.9651163"><ele>252.0</ele><time>2026-04-11T13:15:00.177Z</time></trkpt><trkpt lat="44.8877065" lon="7.9650279"><ele>252.0</ele><time>2026-04-11T13:15:05.15Z</time></trkpt><trkpt lat="44.8876923" lon="7.96494"><ele>252.0</ele><time>2026-04-11T13:15:10.142Z</time></trkpt><trkpt lat="44.8876695" lon="7.9648536"><ele>252.0</ele><time>2026-04-11T13:15:16.14Z</time></trkpt><trkpt lat="44.8876483" lon="7.9647694"><ele>252.0</ele><time>2026-04-11T13:15:22.115Z</time></trkpt><trkpt lat="44.8876284" lon="7.9646763"><ele>252.0</ele><time>2026-04-11T13:15:28.111Z</time></trkpt><trkpt lat="44.8876024" lon="7.9645851"><ele>252.14285714285714</ele><time>2026-04-11T13:15:34.165Z</time></trkpt><trkpt lat="44.8875422" lon="7.9646308"><ele>252.28571428571428</ele><time>2026-04-11T13:15:43.128Z</time></trkpt><trkpt lat="44.8875363" lon="7.9647263"><ele>252.42857142857144</ele><time>2026-04-11T13:15:49.15Z</time></trkpt><trkpt lat="44.8875399" lon="7.9648234"><ele>252.57142857142858</ele><time>2026-04-11T13:15:56.109Z</time></trkpt><trkpt lat="44.8875644" lon="7.9649256"><ele>252.71428571428572</ele><time>2026-04-11T13:16:02.121Z</time></trkpt><trkpt lat="44.8875827" lon="7.9650241"><ele>252.8571428571429</ele><time>2026-04-11T13:16:08.124Z</time></trkpt><trkpt lat="44.8875618" lon="7.9651277"><ele>253.00000000000003</ele><time>2026-04-11T13:16:16.179Z</time></trkpt><trkpt lat="44.887533" lon="7.9652144"><ele>252.8571428571429</ele><time>2026-04-11T13:16:23.156Z</time></trkpt><trkpt lat="44.8875483" lon="7.9653126"><ele>252.71428571428572</ele><time>2026-04-11T13:16:33.225Z</time></trkpt><trkpt lat="44.8875816" lon="7.9653991"><ele>252.57142857142858</ele><time>2026-04-11T13:16:41.115Z</time></trkpt><trkpt lat="44.8876034" lon="7.9654902"><ele>252.42857142857144</ele><time>2026-04-11T13:16:48.117Z</time></trkpt><trkpt lat="44.8875702" lon="7.965579"><ele>252.28571428571428</ele><time>2026-04-11T13:17:07.139Z</time></trkpt><trkpt lat="44.8875062" lon="7.9655671"><ele>252.14285714285714</ele><time>2026-04-11T13:17:12.189Z</time></trkpt><trkpt lat="44.8874472" lon="7.9655127"><ele>252.0</ele><time>2026-04-11T13:17:17.152Z</time></trkpt><trkpt lat="44.8874223" lon="7.9654304"><ele>252.14285714285714</ele><time>2026-04-11T13:17:23.144Z</time></trkpt><trkpt lat="44.8874022" lon="7.9653244"><ele>252.28571428571428</ele><time>2026-04-11T13:17:29.132Z</time></trkpt><trkpt lat="44.8873887" lon="7.965226"><ele>252.42857142857144</ele><time>2026-04-11T13:17:33.197Z</time></trkpt><trkpt lat="44.8873953" lon="7.9651328"><ele>252.57142857142858</ele><time>2026-04-11T13:17:39.147Z</time></trkpt><trkpt lat="44.8873877" lon="7.9650319"><ele>252.71428571428572</ele><time>2026-04-11T13:17:44.106Z</time></trkpt><trkpt lat="44.8874029" lon="7.964933"><ele>252.8571428571429</ele><time>2026-04-11T13:17:50.109Z</time></trkpt><trkpt lat="44.8873944" lon="7.9648347"><ele>253.00000000000003</ele><time>2026-04-11T13:17:56.119Z</time></trkpt><trkpt lat="44.8873276" lon="7.9648494"><ele>253.00000000000003</ele><time>2026-04-11T13:18:11.11Z</time></trkpt><trkpt lat="44.8873097" lon="7.9649395"><ele>253.0</ele><time>2026-04-11T13:18:19.146Z</time></trkpt><trkpt lat="44.8872986" lon="7.9650309"><ele>253.00000000000003</ele><time>2026-04-11T13:18:26.119Z</time></trkpt><trkpt lat="44.8872934" lon="7.9651226"><ele>253.00000000000003</ele><time>2026-04-11T13:18:32.133Z</time></trkpt><trkpt lat="44.8872955" lon="7.9652197"><ele>253.0</ele><time>2026-04-11T13:18:41.108Z</time></trkpt><trkpt lat="44.8872999" lon="7.9653119"><ele>253.00000000000003</ele><time>2026-04-11T13:18:47.11Z</time></trkpt><trkpt lat="44.887281" lon="7.965406"><ele>253.00000000000003</ele><time>2026-04-11T13:18:54.188Z</time></trkpt><trkpt lat="44.8872747" lon="7.965505"><ele>254.14285714285717</ele><time>2026-04-11T13:19:00.161Z</time></trkpt><trkpt lat="44.8872491" lon="7.9656095"><ele>255.28571428571428</ele><time>2026-04-11T13:19:07.187Z</time></trkpt><trkpt lat="44.8872168" lon="7.9656958"><ele>256.42857142857144</ele><time>2026-04-11T13:19:14.108Z</time></trkpt><trkpt lat="44.8871818" lon="7.9656202"><ele>257.57142857142856</ele><time>2026-04-11T13:19:24.179Z</time></trkpt><trkpt lat="44.8871899" lon="7.9655159"><ele>258.7142857142857</ele><time>2026-04-11T13:19:29.123Z</time></trkpt><trkpt lat="44.8871896" lon="7.9654121"><ele>259.8571428571429</ele><time>2026-04-11T13:19:35.116Z</time></trkpt><trkpt lat="44.8871891" lon="7.9653159"><ele>261.0</ele><time>2026-04-11T13:19:40.104Z</time></trkpt><trkpt lat="44.8871866" lon="7.9652239"><ele>261.0</ele><time>2026-04-11T13:19:47.149Z</time></trkpt><trkpt lat="44.8871872" lon="7.9651263"><ele>261.0</ele><time>2026-04-11T13:19:53.29Z</time></trkpt><trkpt lat="44.8871867" lon="7.9650287"><ele>261.0</ele><time>2026-04-11T13:19:58.156Z</time></trkpt><trkpt lat="44.8871286" lon="7.9649693"><ele>261.0</ele><time>2026-04-11T13:20:10.127Z</time></trkpt><trkpt lat="44.8870647" lon="7.964935"><ele>261.0</ele><time>2026-04-11T13:20:17.183Z</time></trkpt><trkpt lat="44.8869916" lon="7.9649459"><ele>261.0</ele><time>2026-04-11T13:20:24.177Z</time></trkpt><trkpt lat="44.8869431" lon="7.9650137"><ele>261.0</ele><time>2026-04-11T13:20:31.144Z</time></trkpt><trkpt lat="44.8869137" lon="7.9650994"><ele>261.0</ele><time>2026-04-11T13:20:43.157Z</time></trkpt><trkpt lat="44.8869121" lon="7.9651954"><ele>261.0</ele><time>2026-04-11T13:20:55.244Z</time></trkpt><trkpt lat="44.8869213" lon="7.9652889"><ele>261.0</ele><time>2026-04-11T13:21:02.164Z</time></trkpt><trkpt lat="44.886949" lon="7.9653699"><ele>261.0</ele><time>2026-04-11T13:21:07.115Z</time></trkpt><trkpt lat="44.8869778" lon="7.9654502"><ele>261.0</ele><time>2026-04-11T13:21:12.105Z</time></trkpt><trkpt lat="44.8870172" lon="7.9655328"><ele>261.0</ele><time>2026-04-11T13:21:19.158Z</time></trkpt><trkpt lat="44.8870463" lon="7.9656606"><ele>261.0</ele><time>2026-04-11T13:22:58.176Z</time></trkpt><trkpt lat="44.8870921" lon="7.965746"><ele>261.0</ele><time>2026-04-11T13:23:06.113Z</time></trkpt><trkpt lat="44.8871549" lon="7.9658016"><ele>261.0</ele><time>2026-04-11T13:23:12.114Z</time></trkpt><trkpt lat="44.8872136" lon="7.9658473"><ele>261.0</ele><time>2026-04-11T13:23:17.132Z</time></trkpt><trkpt lat="44.8872808" lon="7.9658905"><ele>261.0</ele><time>2026-04-11T13:23:23.166Z</time></trkpt><trkpt lat="44.8873323" lon="7.9659553"><ele>261.0</ele><time>2026-04-11T13:23:30.11Z</time></trkpt><trkpt lat="44.8873601" lon="7.9660376"><ele>261.0</ele><time>2026-04-11T13:23:39.189Z</time></trkpt><trkpt lat="44.8873771" lon="7.9661313"><ele>261.0</ele><time>2026-04-11T13:23:47.109Z</time></trkpt><trkpt lat="44.8873972" lon="7.9662165"><ele>263.0</ele><time>2026-04-11T13:23:55.149Z</time></trkpt><trkpt lat="44.887418" lon="7.9663046"><ele>265.0</ele><time>2026-04-11T13:24:04.111Z</time></trkpt><trkpt lat="44.8874851" lon="7.9662989"><ele>267.0</ele><time>2026-04-11T13:24:11.111Z</time></trkpt><trkpt lat="44.8875319" lon="7.9662356"><ele>269.0</ele><time>2026-04-11T13:24:15.14Z</time></trkpt><trkpt lat="44.8875498" lon="7.966146"><ele>271.0</ele><time>2026-04-11T13:24:21.174Z</time></trkpt><trkpt lat="44.8875165" lon="7.966067"><ele>273.0</ele><time>2026-04-11T13:24:28.156Z</time></trkpt><trkpt lat="44.8874797" lon="7.9659934"><ele>275.0</ele><time>2026-04-11T13:24:35.15Z</time></trkpt><trkpt lat="44.8874392" lon="7.9659161"><ele>273.0</ele><time>2026-04-11T13:24:42.151Z</time></trkpt><trkpt lat="44.8874021" lon="7.9658435"><ele>271.0</ele><time>2026-04-11T13:24:49.173Z</time></trkpt><trkpt lat="44.887433" lon="7.965756"><ele>269.0</ele><time>2026-04-11T13:24:58.158Z</time></trkpt><trkpt lat="44.8875" lon="7.9657431"><ele>267.0</ele><time>2026-04-11T13:25:05.104Z</time></trkpt><trkpt lat="44.8875623" lon="7.9657869"><ele>265.0</ele><time>2026-04-11T13:25:12.116Z</time></trkpt><trkpt lat="44.8876093" lon="7.9658565"><ele>263.0</ele><time>2026-04-11T13:25:21.137Z</time></trkpt><trkpt lat="44.8876519" lon="7.9659312"><ele>261.0</ele><time>2026-04-11T13:25:29.126Z</time></trkpt><trkpt lat="44.8876722" lon="7.9660224"><ele>260.7142857142857</ele><time>2026-04-11T13:25:37.116Z</time></trkpt><trkpt lat="44.8876877" lon="7.9661163"><ele>260.42857142857144</ele><time>2026-04-11T13:25:46.201Z</time></trkpt><trkpt lat="44.8876934" lon="7.9662134"><ele>260.1428571428571</ele><time>2026-04-11T13:25:54.11Z</time></trkpt><trkpt lat="44.8876939" lon="7.9663046"><ele>259.8571428571429</ele><time>2026-04-11T13:26:02.125Z</time></trkpt><trkpt lat="44.8877004" lon="7.9663944"><ele>259.57142857142856</ele><time>2026-04-11T13:26:09.159Z</time></trkpt><trkpt lat="44.8877136" lon="7.9664905"><ele>259.2857142857143</ele><time>2026-04-11T13:26:17.277Z</time></trkpt><trkpt lat="44.8877635" lon="7.9665552"><ele>259.0</ele><time>2026-04-11T13:26:25.177Z</time></trkpt><trkpt lat="44.8877992" lon="7.9666329"><ele>260.85714285714283</ele><time>2026-04-11T13:26:31.108Z</time></trkpt><trkpt lat="44.887845" lon="7.9667091"><ele>262.7142857142857</ele><time>2026-04-11T13:26:37.149Z</time></trkpt><trkpt lat="44.887898" lon="7.9667609"><ele>264.57142857142856</ele><time>2026-04-11T13:26:42.109Z</time></trkpt><trkpt lat="44.8879567" lon="7.9668187"><ele>266.42857142857144</ele><time>2026-04-11T13:26:48.116Z</time></trkpt><trkpt lat="44.8880132" lon="7.9668796"><ele>268.2857142857143</ele><time>2026-04-11T13:26:55.11Z</time></trkpt><trkpt lat="44.8880748" lon="7.9669313"><ele>270.1428571428571</ele><time>2026-04-11T13:27:02.12Z</time></trkpt><trkpt lat="44.8881233" lon="7.966871"><ele>272.0</ele><time>2026-04-11T13:27:13.134Z</time></trkpt><trkpt lat="44.8881274" lon="7.9667822"><ele>271.99999999999994</ele><time>2026-04-11T13:27:20.117Z</time></trkpt><trkpt lat="44.888063" lon="7.9667818"><ele>272.0</ele><time>2026-04-11T13:27:26.176Z</time></trkpt><trkpt lat="44.887991" lon="7.9667976"><ele>272.0</ele><time>2026-04-11T13:27:32.128Z</time></trkpt><trkpt lat="44.887932" lon="7.9667506"><ele>272.0</ele><time>2026-04-11T13:27:38.108Z</time></trkpt><trkpt lat="44.8878925" lon="7.9666765"><ele>272.0</ele><time>2026-04-11T13:27:43.122Z</time></trkpt><trkpt lat="44.8878518" lon="7.9665965"><ele>271.99999999999994</ele><time>2026-04-11T13:27:49.111Z</time></trkpt><trkpt lat="44.8878139" lon="7.9665142"><ele>272.0</ele><time>2026-04-11T13:27:55.175Z</time></trkpt><trkpt lat="44.8877802" lon="7.966428"><ele>270.1428571428571</ele><time>2026-04-11T13:28:01.11Z</time></trkpt><trkpt lat="44.8877796" lon="7.9663359"><ele>268.2857142857143</ele><time>2026-04-11T13:28:07.109Z</time></trkpt><trkpt lat="44.8878426" lon="7.9662894"><ele>266.42857142857144</ele><time>2026-04-11T13:28:19.113Z</time></trkpt><trkpt lat="44.8879059" lon="7.9663118"><ele>264.57142857142856</ele><time>2026-04-11T13:28:25.117Z</time></trkpt><trkpt lat="44.8879616" lon="7.9663742"><ele>262.7142857142857</ele><time>2026-04-11T13:28:32.277Z</time></trkpt><trkpt lat="44.88802" lon="7.9664393"><ele>260.85714285714283</ele><time>2026-04-11T13:28:39.119Z</time></trkpt><trkpt lat="44.8880721" lon="7.9665058"><ele>259.0</ele><time>2026-04-11T13:28:45.113Z</time></trkpt><trkpt lat="44.888128" lon="7.966555"><ele>259.0</ele><time>2026-04-11T13:28:51.123Z</time></trkpt><trkpt lat="44.8881898" lon="7.9666005"><ele>259.0</ele><time>2026-04-11T13:28:59.112Z</time></trkpt><trkpt lat="44.8882525" lon="7.9665791"><ele>259.0</ele><time>2026-04-11T13:29:05.124Z</time></trkpt><trkpt lat="44.8882939" lon="7.9665044"><ele>259.0</ele><time>2026-04-11T13:29:11.177Z</time></trkpt><trkpt lat="44.8882664" lon="7.9664106"><ele>259.0</ele><time>2026-04-11T13:29:18.112Z</time></trkpt><trkpt lat="44.8882166" lon="7.9663472"><ele>259.0</ele><time>2026-04-11T13:29:23.112Z</time></trkpt><trkpt lat="44.8881556" lon="7.966288"><ele>259.0</ele><time>2026-04-11T13:29:29.11Z</time></trkpt><trkpt lat="44.8880881" lon="7.966275"><ele>259.0</ele><time>2026-04-11T13:29:35.109Z</time></trkpt><trkpt lat="44.8880257" lon="7.966255"><ele>259.0</ele><time>2026-04-11T13:29:39.116Z</time></trkpt><trkpt lat="44.8879584" lon="7.9662345"><ele>259.0</ele><time>2026-04-11T13:29:44.125Z</time></trkpt><trkpt lat="44.8878978" lon="7.9662075"><ele>259.0</ele><time>2026-04-11T13:29:49.123Z</time></trkpt><trkpt lat="44.887832" lon="7.9661568"><ele>259.0</ele><time>2026-04-11T13:29:55.109Z</time></trkpt><trkpt lat="44.8877823" lon="7.9660937"><ele>259.0</ele><time>2026-04-11T13:30:01.109Z</time></trkpt><trkpt lat="44.8877466" lon="7.9660079"><ele>259.0</ele><time>2026-04-11T13:30:06.111Z</time></trkpt><trkpt lat="44.8877069" lon="7.9659372"><ele>258.0</ele><time>2026-04-11T13:30:12.105Z</time></trkpt><trkpt lat="44.887669" lon="7.9658577"><ele>257.0</ele><time>2026-04-11T13:30:17.11Z</time></trkpt><trkpt lat="44.8876258" lon="7.965784"><ele>256.0</ele><time>2026-04-11T13:30:23.113Z</time></trkpt><trkpt lat="44.887612" lon="7.9656925"><ele>255.0</ele><time>2026-04-11T13:30:28.154Z</time></trkpt><trkpt lat="44.8876547" lon="7.965612"><ele>254.0</ele><time>2026-04-11T13:30:35.114Z</time></trkpt><trkpt lat="44.8877216" lon="7.9656017"><ele>253.0</ele><time>2026-04-11T13:30:41.118Z</time></trkpt><trkpt lat="44.8877908" lon="7.9656057"><ele>252.0</ele><time>2026-04-11T13:30:50.11Z</time></trkpt><trkpt lat="44.8878608" lon="7.9656147"><ele>252.0</ele><time>2026-04-11T13:30:55.131Z</time></trkpt><trkpt lat="44.8879242" lon="7.9656279"><ele>252.0</ele><time>2026-04-11T13:31:00.109Z</time></trkpt><trkpt lat="44.8879862" lon="7.9656569"><ele>252.0</ele><time>2026-04-11T13:31:08.109Z</time></trkpt><trkpt lat="44.8880521" lon="7.9657032"><ele>252.0</ele><time>2026-04-11T13:31:15.119Z</time></trkpt><trkpt lat="44.8881128" lon="7.9657501"><ele>252.0</ele><time>2026-04-11T13:31:21.116Z</time></trkpt><trkpt lat="44.8881724" lon="7.9657887"><ele>252.0</ele><time>2026-04-11T13:31:26.121Z</time></trkpt><trkpt lat="44.8882315" lon="7.9658221"><ele>252.0</ele><time>2026-04-11T13:31:32.111Z</time></trkpt><trkpt lat="44.8882967" lon="7.965853"><ele>251.14285714285714</ele><time>2026-04-11T13:31:38.111Z</time></trkpt><trkpt lat="44.8883594" lon="7.9659105"><ele>250.28571428571428</ele><time>2026-04-11T13:31:44.124Z</time></trkpt><trkpt lat="44.8884147" lon="7.9659766"><ele>249.42857142857144</ele><time>2026-04-11T13:31:51.122Z</time></trkpt><trkpt lat="44.8884747" lon="7.9660282"><ele>248.57142857142858</ele><time>2026-04-11T13:31:57.12Z</time></trkpt><trkpt lat="44.8885168" lon="7.966095"><ele>247.71428571428572</ele><time>2026-04-11T13:32:03.148Z</time></trkpt><trkpt lat="44.8885427" lon="7.9661851"><ele>246.8571428571429</ele><time>2026-04-11T13:32:11.109Z</time></trkpt><trkpt lat="44.8885421" lon="7.9662751"><ele>246.00000000000003</ele><time>2026-04-11T13:32:17.111Z</time></trkpt><trkpt lat="44.8885164" lon="7.9663677"><ele>246.00000000000003</ele><time>2026-04-11T13:32:24.16Z</time></trkpt><trkpt lat="44.8884825" lon="7.9664534"><ele>246.0</ele><time>2026-04-11T13:32:31.109Z</time></trkpt><trkpt lat="44.8884438" lon="7.9665313"><ele>246.00000000000003</ele><time>2026-04-11T13:32:40.107Z</time></trkpt><trkpt lat="44.888353" lon="7.9665547"><ele>246.00000000000003</ele><time>2026-04-11T13:33:02.112Z</time></trkpt><trkpt lat="44.8883849" lon="7.9666433"><ele>246.0</ele><time>2026-04-11T13:33:11.11Z</time></trkpt><trkpt lat="44.888367" lon="7.9667407"><ele>246.00000000000003</ele><time>2026-04-11T13:33:21.104Z</time></trkpt><trkpt lat="44.888384" lon="7.9668367"><ele>246.00000000000003</ele><time>2026-04-11T13:33:29.11Z</time></trkpt><trkpt lat="44.8883725" lon="7.9669293"><ele>272.0</ele><time>2026-04-11T13:33:36.12Z</time></trkpt></trkseg></trk></gpx>